sensor_id;sensor_type;location;lat;lon;timestamp;pressure;altitude;pressure_sealevel;temperature;humidity
48774;BME280;34576;0.000;0.000;2023-11-21T00:03:37;96130.78;;;16.87;71.52
48774;BME280;34576;0.000;0.000;2023-11-21T00:10:37;96118.81;;;16.90;72.23
48774;BME280;34576;0.000;0.000;2023-11-21T00:17:38;96116.69;;;16.92;72.31
48774;BME280;34576;0.000;0.000;2023-11-21T00:24:39;96115.88;;;16.91;72.27
48774;BME280;34576;0.000;0.000;2023-11-21T00:31:39;96109.22;;;16.94;72.53
48774;BME280;34576;0.000;0.000;2023-11-21T00:38:40;96094.88;;;16.95;72.79
48774;BME280;34576;0.000;0.000;2023-11-21T00:45:40;96088.22;;;16.98;73.12
48774;BME280;34576;0.000;0.000;2023-11-21T00:52:40;96099.63;;;16.98;72.95
48774;BME280;34576;0.000;0.000;2023-11-21T00:59:41;96080.72;;;17.00;72.63
48774;BME280;34576;0.000;0.000;2023-11-21T01:06:41;96090.56;;;16.99;72.70
48774;BME280;34576;0.000;0.000;2023-11-21T01:13:43;96097.78;;;16.99;72.77
48774;BME280;34576;0.000;0.000;2023-11-21T01:20:44;96097.78;;;16.99;72.86
48774;BME280;34576;0.000;0.000;2023-11-21T01:27:46;96102.78;;;17.00;72.59
48774;BME280;34576;0.000;0.000;2023-11-21T01:34:47;96103.09;;;16.99;72.76
48774;BME280;34576;0.000;0.000;2023-11-21T01:41:48;96091.34;;;17.00;72.48
48774;BME280;34576;0.000;0.000;2023-11-21T01:48:48;96098.25;;;17.01;72.63
48774;BME280;34576;0.000;0.000;2023-11-21T01:55:49;96101.03;;;17.15;71.87
48774;BME280;34576;0.000;0.000;2023-11-21T02:02:50;96088.25;;;17.17;72.14
48774;BME280;34576;0.000;0.000;2023-11-21T02:09:50;96091.94;;;17.21;70.44
48774;BME280;34576;0.000;0.000;2023-11-21T02:16:51;96088.31;;;17.12;72.20
48774;BME280;34576;0.000;0.000;2023-11-21T02:23:52;96084.13;;;17.05;72.48
48774;BME280;34576;0.000;0.000;2023-11-21T02:30:52;96084.94;;;17.06;72.46
48774;BME280;34576;0.000;0.000;2023-11-21T02:37:56;96084.84;;;17.11;71.76
48774;BME280;34576;0.000;0.000;2023-11-21T02:44:57;96086.91;;;17.19;69.83
48774;BME280;34576;0.000;0.000;2023-11-21T02:51:57;96100.22;;;17.14;71.02
48774;BME280;34576;0.000;0.000;2023-11-21T02:58:58;96088.97;;;17.22;70.41
48774;BME280;34576;0.000;0.000;2023-11-21T03:05:59;96078.13;;;17.19;70.02
48774;BME280;34576;0.000;0.000;2023-11-21T03:13:00;96075.81;;;17.12;71.80
48774;BME280;34576;0.000;0.000;2023-11-21T03:20:00;96074.66;;;17.18;71.55
48774;BME280;34576;0.000;0.000;2023-11-21T03:27:00;96069.97;;;17.10;72.08
48774;BME280;34576;0.000;0.000;2023-11-21T03:34:01;96078.59;;;17.02;72.85
48774;BME280;34576;0.000;0.000;2023-11-21T03:41:01;96088.66;;;17.05;72.95
48774;BME280;34576;0.000;0.000;2023-11-21T03:48:02;96080.69;;;17.05;72.96
48774;BME280;34576;0.000;0.000;2023-11-21T03:55:03;96076.38;;;17.09;72.88
48774;BME280;34576;0.000;0.000;2023-11-21T04:02:03;96078.81;;;17.05;73.43
48774;BME280;34576;0.000;0.000;2023-11-21T04:09:04;96076.44;;;17.04;73.38
48774;BME280;34576;0.000;0.000;2023-11-21T04:16:05;96083.34;;;17.05;73.58
48774;BME280;34576;0.000;0.000;2023-11-21T04:23:06;96096.63;;;17.05;73.33
48774;BME280;34576;0.000;0.000;2023-11-21T04:30:06;96095.81;;;17.04;73.32
48774;BME280;34576;0.000;0.000;2023-11-21T04:37:06;96097.13;;;17.07;73.13
48774;BME280;34576;0.000;0.000;2023-11-21T04:44:07;96096.00;;;17.13;73.90
48774;BME280;34576;0.000;0.000;2023-11-21T04:51:07;96097.84;;;17.13;73.55
48774;BME280;34576;0.000;0.000;2023-11-21T04:58:07;96098.16;;;17.11;73.43
48774;BME280;34576;0.000;0.000;2023-11-21T05:05:08;96114.09;;;17.11;73.67
48774;BME280;34576;0.000;0.000;2023-11-21T05:12:10;96114.09;;;17.11;73.90
48774;BME280;34576;0.000;0.000;2023-11-21T05:19:11;96115.44;;;17.08;74.04
48774;BME280;34576;0.000;0.000;2023-11-21T05:26:13;96114.66;;;17.08;73.74
48774;BME280;34576;0.000;0.000;2023-11-21T05:33:13;96129.25;;;16.52;68.31
48774;BME280;34576;0.000;0.000;2023-11-21T05:40:13;96149.41;;;14.52;64.12
48774;BME280;34576;0.000;0.000;2023-11-21T05:47:14;96162.63;;;14.31;62.52
48774;BME280;34576;0.000;0.000;2023-11-21T05:54:14;96165.81;;;14.90;62.09
48774;BME280;34576;0.000;0.000;2023-11-21T06:01:14;96168.91;;;16.38;61.45
48774;BME280;34576;0.000;0.000;2023-11-21T06:08:15;96168.75;;;16.59;63.09
48774;BME280;34576;0.000;0.000;2023-11-21T06:15:16;96174.53;;;16.66;63.77
48774;BME280;34576;0.000;0.000;2023-11-21T06:22:19;96185.22;;;16.61;65.13
48774;BME280;34576;0.000;0.000;2023-11-21T06:29:19;96196.09;;;16.59;65.75
48774;BME280;34576;0.000;0.000;2023-11-21T06:36:20;96197.94;;;16.64;66.20
48774;BME280;34576;0.000;0.000;2023-11-21T06:43:20;96204.56;;;16.66;66.54
48774;BME280;34576;0.000;0.000;2023-11-21T06:50:22;96199.75;;;16.68;66.92
48774;BME280;34576;0.000;0.000;2023-11-21T06:57:22;96210.09;;;16.70;67.05
48774;BME280;34576;0.000;0.000;2023-11-21T07:04:23;96215.41;;;16.70;67.47
48774;BME280;34576;0.000;0.000;2023-11-21T07:11:25;96212.47;;;16.71;67.60
48774;BME280;34576;0.000;0.000;2023-11-21T07:18:26;96214.84;;;16.73;67.60
48774;BME280;34576;0.000;0.000;2023-11-21T07:25:26;96216.72;;;16.72;67.59
48774;BME280;34576;0.000;0.000;2023-11-21T07:32:26;96218.31;;;16.73;67.63
48774;BME280;34576;0.000;0.000;2023-11-21T07:39:27;96220.16;;;16.73;67.78
48774;BME280;34576;0.000;0.000;2023-11-21T07:46:27;96226.81;;;16.70;67.76
48774;BME280;34576;0.000;0.000;2023-11-21T07:53:27;96229.97;;;16.72;67.85
48774;BME280;34576;0.000;0.000;2023-11-21T08:00:30;96230.28;;;16.71;68.07
48774;BME280;34576;0.000;0.000;2023-11-21T08:07:31;96244.59;;;16.70;67.95
48774;BME280;34576;0.000;0.000;2023-11-21T08:14:31;96256.03;;;16.70;68.21
48774;BME280;34576;0.000;0.000;2023-11-21T08:21:31;96251.78;;;16.69;67.99
48774;BME280;34576;0.000;0.000;2023-11-21T08:28:32;96259.22;;;16.67;68.18
48774;BME280;34576;0.000;0.000;2023-11-21T08:35:32;96269.06;;;16.67;68.33
48774;BME280;34576;0.000;0.000;2023-11-21T08:42:32;96272.78;;;16.66;68.14
48774;BME280;34576;0.000;0.000;2023-11-21T08:49:32;96278.09;;;16.66;68.24
48774;BME280;34576;0.000;0.000;2023-11-21T08:56:33;96281.31;;;16.63;68.24
48774;BME280;34576;0.000;0.000;2023-11-21T09:03:34;96288.22;;;16.64;68.37
48774;BME280;34576;0.000;0.000;2023-11-21T09:10:34;96287.72;;;16.62;68.14
48774;BME280;34576;0.000;0.000;2023-11-21T09:17:39;96290.88;;;16.59;68.54
48774;BME280;34576;0.000;0.000;2023-11-21T09:24:40;96298.06;;;16.58;68.46
48774;BME280;34576;0.000;0.000;2023-11-21T09:31:40;96305.25;;;16.58;68.22
48774;BME280;34576;0.000;0.000;2023-11-21T09:38:42;96323.03;;;16.57;68.44
48774;BME280;34576;0.000;0.000;2023-11-21T09:45:46;96318.53;;;16.58;68.45
48774;BME280;34576;0.000;0.000;2023-11-21T09:53:21;96311.63;;;16.56;68.53
48774;BME280;34576;0.000;0.000;2023-11-21T10:00:16;96318.53;;;16.58;68.20
48774;BME280;34576;0.000;0.000;2023-11-21T10:07:20;96327.84;;;16.55;68.44
48774;BME280;34576;0.000;0.000;2023-11-21T10:14:20;96319.06;;;16.54;68.44
48774;BME280;34576;0.000;0.000;2023-11-21T10:21:24;96322.81;;;16.53;68.43
48774;BME280;34576;0.000;0.000;2023-11-21T10:28:25;96332.59;;;16.53;68.35
48774;BME280;34576;0.000;0.000;2023-11-21T10:35:25;96337.13;;;16.52;68.43
48774;BME280;34576;0.000;0.000;2023-11-21T10:42:41;96335.53;;;16.51;68.36
48774;BME280;34576;0.000;0.000;2023-11-21T10:49:41;96338.75;;;16.48;68.31
48774;BME280;34576;0.000;0.000;2023-11-21T10:56:42;96331.34;;;16.45;68.50
48774;BME280;34576;0.000;0.000;2023-11-21T11:03:44;96326.03;;;16.45;68.83
48774;BME280;34576;0.000;0.000;2023-11-21T11:10:45;96329.22;;;16.42;68.28
48774;BME280;34576;0.000;0.000;2023-11-21T11:17:48;96327.34;;;16.43;68.40
48774;BME280;34576;0.000;0.000;2023-11-21T11:39:26;96344.88;;;16.44;68.43
48774;BME280;34576;0.000;0.000;2023-11-21T11:46:41;96341.69;;;16.42;68.42
48774;BME280;34576;0.000;0.000;2023-11-21T11:53:42;96348.38;;;16.39;68.22
48774;BME280;34576;0.000;0.000;2023-11-21T12:00:42;96350.47;;;16.37;68.29
48774;BME280;34576;0.000;0.000;2023-11-21T12:14:49;96344.94;;;16.33;68.26
48774;BME280;34576;0.000;0.000;2023-11-21T12:21:49;96340.16;;;16.30;68.45
48774;BME280;34576;0.000;0.000;2023-11-21T12:28:53;96347.06;;;16.31;68.17
48774;BME280;34576;0.000;0.000;2023-11-21T12:35:57;96337.50;;;16.30;68.20
48774;BME280;34576;0.000;0.000;2023-11-21T12:42:59;96347.31;;;16.30;68.55
48774;BME280;34576;0.000;0.000;2023-11-21T12:50:02;96352.91;;;16.28;68.31
48774;BME280;34576;0.000;0.000;2023-11-21T12:57:02;96347.88;;;16.27;68.30
48774;BME280;34576;0.000;0.000;2023-11-21T13:04:07;96346.28;;;16.26;68.31
48774;BME280;34576;0.000;0.000;2023-11-21T13:11:07;96353.69;;;16.29;68.28
48774;BME280;34576;0.000;0.000;2023-11-21T13:18:08;96359.00;;;16.29;68.22
48774;BME280;34576;0.000;0.000;2023-11-21T13:25:11;96359.81;;;16.29;68.27
48774;BME280;34576;0.000;0.000;2023-11-21T13:32:11;96374.41;;;16.27;68.21
48774;BME280;34576;0.000;0.000;2023-11-21T13:39:12;96376.53;;;16.25;68.17
48774;BME280;34576;0.000;0.000;2023-11-21T13:46:15;96386.63;;;16.22;68.38
48774;BME280;34576;0.000;0.000;2023-11-21T13:53:21;96399.91;;;16.22;68.20
48774;BME280;34576;0.000;0.000;2023-11-21T14:00:25;96395.66;;;16.21;68.30
48774;BME280;34576;0.000;0.000;2023-11-21T14:07:47;96400.97;;;16.21;68.34
48774;BME280;34576;0.000;0.000;2023-11-21T14:14:49;96406.25;;;16.21;68.29
48774;BME280;34576;0.000;0.000;2023-11-21T14:21:49;96400.44;;;16.19;68.32
48774;BME280;34576;0.000;0.000;2023-11-21T14:28:50;96411.06;;;16.19;68.22
48774;BME280;34576;0.000;0.000;2023-11-21T14:35:51;96426.19;;;16.19;68.26
48774;BME280;34576;0.000;0.000;2023-11-21T14:42:51;96430.19;;;16.16;68.24
48774;BME280;34576;0.000;0.000;2023-11-21T14:49:57;96439.19;;;16.15;68.12
48774;BME280;34576;0.000;0.000;2023-11-21T14:56:59;96443.66;;;16.30;67.84
48774;BME280;34576;0.000;0.000;2023-11-21T15:04:00;96447.16;;;16.20;68.04
48774;BME280;34576;0.000;0.000;2023-11-21T15:11:00;96451.41;;;16.16;68.26
48774;BME280;34576;0.000;0.000;2023-11-21T15:18:02;96458.81;;;16.14;68.24
48774;BME280;34576;0.000;0.000;2023-11-21T15:25:03;96463.34;;;16.14;68.16
48774;BME280;34576;0.000;0.000;2023-11-21T15:32:10;96479.53;;;16.12;68.30
48774;BME280;34576;0.000;0.000;2023-11-21T15:39:10;96485.13;;;16.11;68.04
48774;BME280;34576;0.000;0.000;2023-11-21T15:46:10;96476.88;;;16.12;68.05
48774;BME280;34576;0.000;0.000;2023-11-21T15:53:12;96482.19;;;16.12;68.20
48774;BME280;34576;0.000;0.000;2023-11-21T16:00:13;96489.63;;;16.10;68.03
48774;BME280;34576;0.000;0.000;2023-11-21T16:07:16;96496.28;;;16.08;68.01
48774;BME280;34576;0.000;0.000;2023-11-21T16:14:18;96512.44;;;16.06;67.99
48774;BME280;34576;0.000;0.000;2023-11-21T16:21:19;96513.50;;;16.05;68.05
48774;BME280;34576;0.000;0.000;2023-11-21T16:28:21;96520.94;;;16.08;67.93
48774;BME280;34576;0.000;0.000;2023-11-21T16:35:22;96536.56;;;16.04;67.94
48774;BME280;34576;0.000;0.000;2023-11-21T16:42:22;96541.88;;;16.04;67.85
48774;BME280;34576;0.000;0.000;2023-11-21T16:49:23;96549.06;;;16.04;67.88
48774;BME280;34576;0.000;0.000;2023-11-21T16:56:23;96544.28;;;16.01;67.89
48774;BME280;34576;0.000;0.000;2023-11-21T17:03:24;96553.84;;;16.02;67.62
48774;BME280;34576;0.000;0.000;2023-11-21T17:10:26;96567.38;;;16.00;67.62
48774;BME280;34576;0.000;0.000;2023-11-21T17:17:26;96577.72;;;16.02;67.80
48774;BME280;34576;0.000;0.000;2023-11-21T17:24:27;96587.78;;;16.00;67.80
48774;BME280;34576;0.000;0.000;2023-11-21T17:31:32;96592.03;;;16.01;67.65
48774;BME280;34576;0.000;0.000;2023-11-21T17:38:33;96599.47;;;15.99;67.80
48774;BME280;34576;0.000;0.000;2023-11-21T17:45:33;96602.09;;;15.99;67.80
48774;BME280;34576;0.000;0.000;2023-11-21T17:52:33;96612.72;;;15.99;67.62
48774;BME280;34576;0.000;0.000;2023-11-21T17:59:36;96623.88;;;15.96;67.73
48774;BME280;34576;0.000;0.000;2023-11-21T18:06:37;96635.81;;;15.98;67.62
48774;BME280;34576;0.000;0.000;2023-11-21T18:13:37;96635.81;;;15.98;67.71
48774;BME280;34576;0.000;0.000;2023-11-21T18:20:38;96643.25;;;15.96;67.75
48774;BME280;34576;0.000;0.000;2023-11-21T18:27:38;96646.69;;;15.97;67.75
48774;BME280;34576;0.000;0.000;2023-11-21T18:34:41;96669.78;;;15.96;67.82
48774;BME280;34576;0.000;0.000;2023-11-21T18:41:44;96674.28;;;16.06;68.54
48774;BME280;34576;0.000;0.000;2023-11-21T18:48:45;96683.59;;;16.09;68.68
48774;BME280;34576;0.000;0.000;2023-11-21T18:55:47;96701.59;;;16.01;68.75
48774;BME280;34576;0.000;0.000;2023-11-21T19:02:48;96714.09;;;16.01;68.57
48774;BME280;34576;0.000;0.000;2023-11-21T19:09:48;96716.19;;;15.99;68.46
48774;BME280;34576;0.000;0.000;2023-11-21T19:16:49;96711.44;;;16.01;68.52
48774;BME280;34576;0.000;0.000;2023-11-21T19:23:49;96717.00;;;15.99;68.49
48774;BME280;34576;0.000;0.000;2023-11-21T19:30:51;96727.06;;;15.97;68.34
48774;BME280;34576;0.000;0.000;2023-11-21T19:37:52;96722.56;;;15.98;68.32
48774;BME280;34576;0.000;0.000;2023-11-21T19:44:52;96731.59;;;15.97;68.20
48774;BME280;34576;0.000;0.000;2023-11-21T19:51:53;96741.66;;;15.95;68.16
48774;BME280;34576;0.000;0.000;2023-11-21T19:58:53;96756.00;;;16.04;67.98
48774;BME280;34576;0.000;0.000;2023-11-21T20:05:54;96765.59;;;16.10;69.34
48774;BME280;34576;0.000;0.000;2023-11-21T20:12:54;96783.09;;;16.11;69.58
48774;BME280;34576;0.000;0.000;2023-11-21T20:19:55;96790.03;;;16.12;69.68
48774;BME280;34576;0.000;0.000;2023-11-21T20:26:55;96803.56;;;16.11;69.83
48774;BME280;34576;0.000;0.000;2023-11-21T20:33:56;96798.25;;;16.11;69.72
48774;BME280;34576;0.000;0.000;2023-11-21T20:40:57;96805.44;;;16.26;69.29
48774;BME280;34576;0.000;0.000;2023-11-21T20:47:58;96816.09;;;16.36;68.92
48774;BME280;34576;0.000;0.000;2023-11-21T20:54:59;96818.50;;;16.37;68.85
48774;BME280;34576;0.000;0.000;2023-11-21T21:01:59;96827.78;;;16.40;68.89
48774;BME280;34576;0.000;0.000;2023-11-21T21:08:59;96836.31;;;16.42;68.71
48774;BME280;34576;0.000;0.000;2023-11-21T21:16:01;96831.78;;;16.43;68.94
48774;BME280;34576;0.000;0.000;2023-11-21T21:23:02;96838.44;;;16.45;68.78
48774;BME280;34576;0.000;0.000;2023-11-21T21:30:03;96839.75;;;16.43;68.96
48774;BME280;34576;0.000;0.000;2023-11-21T21:37:04;96845.31;;;16.41;68.58
48774;BME280;34576;0.000;0.000;2023-11-21T21:44:05;96867.66;;;16.50;69.18
48774;BME280;34576;0.000;0.000;2023-11-21T21:51:05;96859.69;;;16.45;70.16
48774;BME280;34576;0.000;0.000;2023-11-21T21:58:13;96848.00;;;16.46;70.68
48774;BME280;34576;0.000;0.000;2023-11-21T22:05:13;96857.28;;;16.49;70.85
48774;BME280;34576;0.000;0.000;2023-11-21T22:12:14;96845.34;;;16.51;71.31
48774;BME280;34576;0.000;0.000;2023-11-21T22:19:14;96851.22;;;16.53;71.46
48774;BME280;34576;0.000;0.000;2023-11-21T22:26:15;96844.03;;;16.54;71.76
48774;BME280;34576;0.000;0.000;2023-11-21T22:33:15;96858.66;;;16.56;71.91
48774;BME280;34576;0.000;0.000;2023-11-21T22:40:16;96852.28;;;16.58;72.63
48774;BME280;34576;0.000;0.000;2023-11-21T22:47:17;96868.75;;;16.60;72.42
48774;BME280;34576;0.000;0.000;2023-11-21T22:54:21;96864.22;;;16.60;72.39
48774;BME280;34576;0.000;0.000;2023-11-21T23:01:22;96869.53;;;16.60;72.47
48774;BME280;34576;0.000;0.000;2023-11-21T23:08:22;96871.97;;;16.62;72.38
48774;BME280;34576;0.000;0.000;2023-11-21T23:15:23;96880.44;;;16.64;72.57
48774;BME280;34576;0.000;0.000;2023-11-21T23:22:24;96884.97;;;16.63;72.56
48774;BME280;34576;0.000;0.000;2023-11-21T23:29:26;96885.75;;;16.64;72.59
48774;BME280;34576;0.000;0.000;2023-11-21T23:36:27;96893.28;;;16.93;71.86
48774;BME280;34576;0.000;0.000;2023-11-21T23:43:27;96891.91;;;16.74;72.68
48774;BME280;34576;0.000;0.000;2023-11-21T23:50:28;96886.56;;;16.69;72.88
48774;BME280;34576;0.000;0.000;2023-11-21T23:57:30;96881.25;;;16.69;73.04
